Time;durP1;ratioP1;P1;durP2;ratioP2;P2;SDS_P1;SDS_P2;PMS_P1;PMS_P2;Temp;Humidity;BMP_temperature;BMP_pressure;BME280_temperature;BME280_humidity;BME280_pressure;Samples;Min_cycle;Max_cycle;Signal;HPM_P1;HPM_P2
2023/10/31 00:01:49;;;;;;;116.15;20.30;;;;;;;;;;5042168;28;20584;-60
2023/10/31 00:04:16;;;;;;;135.02;20.55;;;;;;;;;;5038085;28;20039;-61
2023/10/31 00:06:44;;;;;;;110.20;17.70;;;;;;;;;;5043285;28;20292;-61
2023/10/31 00:09:10;;;;;;;120.32;15.13;;;;;;;;;;5023541;28;20267;-60
2023/10/31 00:11:36;;;;;;;168.20;19.23;;;;;;;;;;5043947;28;20055;-61
2023/10/31 00:14:03;;;;;;;122.85;14.25;;;;;;;;;;5042576;28;20078;-63
2023/10/31 00:16:29;;;;;;;55.22;13.45;;;;;;;;;;5040858;28;20497;-61
2023/10/31 00:18:56;;;;;;;128.82;17.00;;;;;;;;;;5034470;28;20028;-61
2023/10/31 00:21:22;;;;;;;94.80;15.18;;;;;;;;;;5046369;28;20090;-62
2023/10/31 00:23:49;;;;;;;74.70;14.68;;;;;;;;;;5032433;28;20060;-61
2023/10/31 00:26:15;;;;;;;45.05;10.73;;;;;;;;;;5019999;28;20017;-62
2023/10/31 00:28:41;;;;;;;95.13;13.82;;;;;;;;;;5030401;28;20078;-62
2023/10/31 00:31:08;;;;;;;94.72;13.23;;;;;;;;;;5041976;28;20315;-61
2023/10/31 00:33:35;;;;;;;76.57;12.13;;;;;;;;;;5027374;28;20025;-60
2023/10/31 00:36:01;;;;;;;76.18;12.77;;;;;;;;;;5018349;28;20065;-60
2023/10/31 00:38:28;;;;;;;61.33;10.90;;;;;;;;;;5042892;28;20090;-62
2023/10/31 00:40:55;;;;;;;71.70;11.40;;;;;;;;;;5029484;28;20159;-61
2023/10/31 00:43:21;;;;;;;67.18;11.27;;;;;;;;;;5023284;28;20024;-61
2023/10/31 00:45:47;;;;;;;59.97;11.27;;;;;;;;;;5025814;28;20155;-61
2023/10/31 00:48:13;;;;;;;44.83;11.88;;;;;;;;;;5045191;28;20032;-61
2023/10/31 00:50:39;;;;;;;45.38;9.73;;;;;;;;;;5038022;28;20517;-61
2023/10/31 00:53:05;;;;;;;50.25;10.00;;;;;;;;;;5039168;28;20037;-61
2023/10/31 00:55:31;;;;;;;56.58;12.85;;;;;;;;;;5035867;28;20139;-61
2023/10/31 00:57:57;;;;;;;41.15;9.98;;;;;;;;;;5027026;28;20506;-59
2023/10/31 01:00:24;;;;;;;64.20;10.50;;;;;;;;;;5042819;28;20398;-61
2023/10/31 01:02:50;;;;;;;58.03;9.68;;;;;;;;;;5044133;28;20048;-61
2023/10/31 01:05:16;;;;;;;36.63;8.88;;;;;;;;;;5036156;28;20032;-61
2023/10/31 01:07:43;;;;;;;62.90;11.85;;;;;;;;;;5022707;28;20867;-61
2023/10/31 01:10:10;;;;;;;72.30;10.90;;;;;;;;;;5032463;28;20048;-61
2023/10/31 01:12:36;;;;;;;32.22;8.50;;;;;;;;;;5025161;28;20498;-60
2023/10/31 01:15:02;;;;;;;32.90;9.18;;;;;;;;;;5037951;28;20033;-60
2023/10/31 01:17:28;;;;;;;48.30;9.77;;;;;;;;;;5030592;28;20551;-61
2023/10/31 01:19:54;;;;;;;41.10;8.98;;;;;;;;;;5040863;28;20029;-61
2023/10/31 01:22:20;;;;;;;55.05;9.98;;;;;;;;;;5044135;28;20398;-62
2023/10/31 01:24:46;;;;;;;61.03;10.32;;;;;;;;;;5046047;28;20025;-61
2023/10/31 01:27:12;;;;;;;54.72;11.10;;;;;;;;;;5024873;28;20029;-61
2023/10/31 01:29:38;;;;;;;51.95;8.60;;;;;;;;;;5021321;28;20073;-61
2023/10/31 01:32:05;;;;;;;32.20;8.80;;;;;;;;;;5039475;28;20029;-61
2023/10/31 01:34:31;;;;;;;47.80;12.02;;;;;;;;;;5033564;28;20037;-61
2023/10/31 01:36:57;;;;;;;55.35;11.55;;;;;;;;;;5021604;28;20502;-62
2023/10/31 01:39:23;;;;;;;45.17;8.60;;;;;;;;;;5042638;28;20025;-61
2023/10/31 01:41:49;;;;;;;47.40;9.25;;;;;;;;;;5043112;28;20551;-61
2023/10/31 01:44:15;;;;;;;36.47;8.63;;;;;;;;;;5039579;28;20520;-61
2023/10/31 01:46:41;;;;;;;44.58;9.25;;;;;;;;;;5037676;28;20033;-61
2023/10/31 01:49:08;;;;;;;33.05;8.85;;;;;;;;;;5036323;28;20047;-60
2023/10/31 01:51:34;;;;;;;32.42;7.88;;;;;;;;;;5042024;28;20107;-60
2023/10/31 01:54:00;;;;;;;35.20;11.32;;;;;;;;;;5027219;28;20606;-61
2023/10/31 01:56:27;;;;;;;26.10;8.30;;;;;;;;;;5043713;28;20050;-61
2023/10/31 01:58:53;;;;;;;26.73;8.95;;;;;;;;;;5016695;28;20487;-61
2023/10/31 02:01:19;;;;;;;25.42;9.65;;;;;;;;;;5029307;28;21059;-61
2023/10/31 02:03:45;;;;;;;43.28;10.57;;;;;;;;;;5039680;28;20021;-61
2023/10/31 02:06:11;;;;;;;38.63;10.73;;;;;;;;;;5035868;28;20074;-60
2023/10/31 02:08:38;;;;;;;34.38;11.30;;;;;;;;;;5038753;28;20138;-60
2023/10/31 02:11:05;;;;;;;51.72;13.05;;;;;;;;;;5017318;28;20029;-60
2023/10/31 02:13:31;;;;;;;41.00;13.07;;;;;;;;;;5032110;28;20048;-60
2023/10/31 02:15:58;;;;;;;37.42;13.52;;;;;;;;;;5036544;28;20033;-61
2023/10/31 02:18:24;;;;;;;36.58;12.77;;;;;;;;;;5039463;28;20163;-63
2023/10/31 02:20:50;;;;;;;47.95;12.80;;;;;;;;;;5024066;28;20405;-60
2023/10/31 02:23:16;;;;;;;30.90;11.05;;;;;;;;;;5011386;28;20021;-61
2023/10/31 02:25:42;;;;;;;37.13;13.05;;;;;;;;;;5038007;28;20029;-62
2023/10/31 02:28:08;;;;;;;32.83;12.43;;;;;;;;;;5035264;28;20033;-61
2023/10/31 02:30:35;;;;;;;27.30;10.75;;;;;;;;;;5037602;28;20037;-60
2023/10/31 02:33:05;;;;;;;20.55;10.55;;;;;;;;;;5040871;28;20037;-60
2023/10/31 02:35:31;;;;;;;23.52;10.40;;;;;;;;;;5043804;28;20032;-60
2023/10/31 02:37:57;;;;;;;28.52;11.73;;;;;;;;;;5033103;28;20498;-61
2023/10/31 02:40:23;;;;;;;24.23;11.70;;;;;;;;;;5037123;28;20049;-61
2023/10/31 02:42:49;;;;;;;21.73;10.23;;;;;;;;;;5042314;28;20113;-60
2023/10/31 02:45:15;;;;;;;25.65;10.68;;;;;;;;;;5022790;28;20071;-61
2023/10/31 02:47:41;;;;;;;26.42;12.07;;;;;;;;;;5040521;28;20567;-61
2023/10/31 02:50:08;;;;;;;23.65;10.63;;;;;;;;;;5039659;28;20406;-59
2023/10/31 02:52:34;;;;;;;27.38;11.98;;;;;;;;;;5032335;28;20514;-60
2023/10/31 02:55:00;;;;;;;26.13;12.02;;;;;;;;;;5037634;28;20063;-61
2023/10/31 02:57:26;;;;;;;29.58;12.75;;;;;;;;;;5043500;28;20029;-61
2023/10/31 02:59:52;;;;;;;23.48;10.75;;;;;;;;;;5013415;28;20021;-61
2023/10/31 03:02:18;;;;;;;19.63;9.90;;;;;;;;;;5036727;28;20045;-62
2023/10/31 03:04:44;;;;;;;26.15;12.45;;;;;;;;;;5040422;28;20041;-60
2023/10/31 03:07:10;;;;;;;18.20;10.02;;;;;;;;;;5046707;28;20025;-61
2023/10/31 03:09:36;;;;;;;25.70;10.85;;;;;;;;;;5035238;28;20040;-61
2023/10/31 03:12:02;;;;;;;19.80;10.00;;;;;;;;;;5046315;28;20617;-62
2023/10/31 03:14:29;;;;;;;19.05;9.02;;;;;;;;;;5041077;28;20028;-61
2023/10/31 03:16:55;;;;;;;19.33;9.90;;;;;;;;;;5039363;28;20033;-61
2023/10/31 03:19:23;;;;;;;23.67;9.50;;;;;;;;;;5037041;28;20036;-61
2023/10/31 03:21:50;;;;;;;21.17;10.00;;;;;;;;;;5022101;28;20026;-60
2023/10/31 03:24:16;;;;;;;17.55;8.82;;;;;;;;;;5036995;28;20079;-59
2023/10/31 03:26:42;;;;;;;20.83;9.43;;;;;;;;;;5045500;28;20043;-60
2023/10/31 03:29:08;;;;;;;34.80;10.20;;;;;;;;;;5037024;28;20036;-59
2023/10/31 03:31:34;;;;;;;21.63;8.57;;;;;;;;;;5044580;28;20443;-60
2023/10/31 03:34:00;;;;;;;15.70;8.25;;;;;;;;;;5043504;28;20078;-61
2023/10/31 03:36:26;;;;;;;17.63;7.95;;;;;;;;;;5038089;28;20036;-61
2023/10/31 03:38:52;;;;;;;12.48;7.32;;;;;;;;;;5022327;28;20057;-60
2023/10/31 03:41:18;;;;;;;17.75;7.72;;;;;;;;;;5026522;28;20078;-60
2023/10/31 03:43:44;;;;;;;15.02;7.28;;;;;;;;;;5029387;28;20028;-60
2023/10/31 03:46:12;;;;;;;15.50;7.35;;;;;;;;;;5038483;28;20055;-60
2023/10/31 03:48:38;;;;;;;19.58;8.65;;;;;;;;;;5046609;28;20513;-61
2023/10/31 03:51:04;;;;;;;16.58;7.38;;;;;;;;;;5043434;28;20037;-60
2023/10/31 03:53:30;;;;;;;13.57;7.05;;;;;;;;;;5037197;28;20124;-61
2023/10/31 03:55:56;;;;;;;13.52;6.97;;;;;;;;;;5040787;28;20489;-61
2023/10/31 03:58:23;;;;;;;13.55;7.57;;;;;;;;;;5036794;28;20023;-61
2023/10/31 04:00:49;;;;;;;15.35;7.80;;;;;;;;;;5041856;28;20037;-63
2023/10/31 04:03:16;;;;;;;17.50;6.95;;;;;;;;;;5010240;28;20048;-61
2023/10/31 04:05:42;;;;;;;19.52;7.53;;;;;;;;;;5020641;28;20668;-60
2023/10/31 04:08:08;;;;;;;20.27;8.00;;;;;;;;;;5016090;28;20657;-60
2023/10/31 04:10:34;;;;;;;14.25;7.35;;;;;;;;;;5013058;28;20037;-61
2023/10/31 04:13:00;;;;;;;15.00;8.40;;;;;;;;;;5026193;28;20029;-61
2023/10/31 04:15:26;;;;;;;17.77;8.05;;;;;;;;;;5014583;28;20589;-61
2023/10/31 04:17:52;;;;;;;17.92;8.98;;;;;;;;;;5019862;28;20395;-61
2023/10/31 04:20:18;;;;;;;16.23;9.02;;;;;;;;;;5020444;28;20116;-61
2023/10/31 04:22:45;;;;;;;20.92;9.57;;;;;;;;;;5025566;28;20033;-62
2023/10/31 04:25:11;;;;;;;21.48;10.32;;;;;;;;;;5011623;28;20387;-62
2023/10/31 04:27:37;;;;;;;22.83;10.57;;;;;;;;;;5017613;28;20055;-61
2023/10/31 04:30:03;;;;;;;19.25;10.48;;;;;;;;;;5020540;28;20044;-60
2023/10/31 04:32:29;;;;;;;20.50;9.32;;;;;;;;;;5020688;28;20099;-61
2023/10/31 04:34:58;;;;;;;22.65;10.43;;;;;;;;;;5018450;28;20065;-60
2023/10/31 04:37:25;;;;;;;19.75;9.35;;;;;;;;;;5021453;28;20079;-61
2023/10/31 04:39:51;;;;;;;25.80;9.65;;;;;;;;;;5022625;28;20029;-60
2023/10/31 04:42:18;;;;;;;21.15;11.35;;;;;;;;;;5023468;28;20056;-61
2023/10/31 04:44:44;;;;;;;21.60;10.38;;;;;;;;;;5027211;28;20108;-60
2023/10/31 04:47:10;;;;;;;18.90;9.73;;;;;;;;;;5021061;28;20786;-62
2023/10/31 04:49:36;;;;;;;21.70;10.50;;;;;;;;;;5028553;28;20026;-60
2023/10/31 04:52:02;;;;;;;21.48;9.68;;;;;;;;;;5015385;28;20815;-61
2023/10/31 04:54:29;;;;;;;21.38;10.95;;;;;;;;;;5011663;28;20022;-61
2023/10/31 04:56:55;;;;;;;18.05;10.68;;;;;;;;;;5020135;28;20364;-60
2023/10/31 04:59:21;;;;;;;21.27;10.57;;;;;;;;;;5022605;28;20475;-60
2023/10/31 05:01:50;;;;;;;18.15;9.57;;;;;;;;;;5017690;28;20052;-61
2023/10/31 05:04:17;;;;;;;22.02;10.35;;;;;;;;;;5035515;28;20056;-61
2023/10/31 05:06:44;;;;;;;18.60;10.32;;;;;;;;;;5040302;28;20028;-61
2023/10/31 05:09:10;;;;;;;16.45;9.60;;;;;;;;;;5038936;28;20063;-60
2023/10/31 05:11:36;;;;;;;28.58;11.32;;;;;;;;;;5023912;28;20861;-60
2023/10/31 05:14:03;;;;;;;21.17;10.40;;;;;;;;;;5021290;28;20028;-59
2023/10/31 05:16:29;;;;;;;20.83;9.80;;;;;;;;;;5027274;28;20028;-60
2023/10/31 05:18:55;;;;;;;20.75;9.68;;;;;;;;;;5013829;28;20025;-61
2023/10/31 05:21:23;;;;;;;18.90;9.65;;;;;;;;;;5041314;28;20028;-60
2023/10/31 05:23:49;;;;;;;18.40;8.93;;;;;;;;;;5036740;28;20057;-61
2023/10/31 05:26:15;;;;;;;21.48;10.48;;;;;;;;;;5032309;28;20033;-62
2023/10/31 05:28:41;;;;;;;20.15;8.95;;;;;;;;;;5019103;28;20067;-62
2023/10/31 05:31:07;;;;;;;13.65;8.60;;;;;;;;;;5041391;28;20024;-62
2023/10/31 05:33:34;;;;;;;16.55;9.73;;;;;;;;;;5033597;28;20029;-61
2023/10/31 05:36:00;;;;;;;16.70;8.98;;;;;;;;;;5019969;28;20108;-61
2023/10/31 05:38:26;;;;;;;15.98;8.75;;;;;;;;;;5040301;28;20025;-61
2023/10/31 05:40:52;;;;;;;18.52;9.95;;;;;;;;;;5041922;28;20025;-62
2023/10/31 05:43:18;;;;;;;16.40;8.25;;;;;;;;;;5040728;28;20115;-61
2023/10/31 05:45:44;;;;;;;15.55;8.38;;;;;;;;;;5023112;28;20036;-62
2023/10/31 05:48:10;;;;;;;14.98;8.90;;;;;;;;;;5038838;28;20025;-62
2023/10/31 05:50:36;;;;;;;21.00;8.85;;;;;;;;;;5032886;28;20036;-61
2023/10/31 05:53:02;;;;;;;17.85;9.35;;;;;;;;;;5036971;28;20581;-61
2023/10/31 05:55:28;;;;;;;15.20;8.93;;;;;;;;;;5032458;28;20044;-61
2023/10/31 05:57:54;;;;;;;18.40;8.63;;;;;;;;;;5035858;28;20060;-61
2023/10/31 06:00:20;;;;;;;16.65;9.32;;;;;;;;;;5033224;28;20033;-61
2023/10/31 06:02:47;;;;;;;18.83;9.63;;;;;;;;;;5032379;28;20047;-62
2023/10/31 06:05:13;;;;;;;17.13;8.63;;;;;;;;;;5031863;28;20119;-61
2023/10/31 06:07:39;;;;;;;16.30;8.60;;;;;;;;;;5035309;28;20029;-61
2023/10/31 06:10:06;;;;;;;17.20;8.48;;;;;;;;;;5035805;28;20036;-61
2023/10/31 06:12:32;;;;;;;17.33;8.88;;;;;;;;;;5032833;28;20033;-61
2023/10/31 06:14:58;;;;;;;15.45;8.70;;;;;;;;;;5037696;28;20528;-61
2023/10/31 06:17:26;;;;;;;15.68;7.90;;;;;;;;;;5036089;28;20018;-61
2023/10/31 06:19:52;;;;;;;13.10;7.93;;;;;;;;;;5038896;28;20517;-61
2023/10/31 06:22:18;;;;;;;15.80;8.70;;;;;;;;;;5034412;28;20044;-60
2023/10/31 06:24:44;;;;;;;15.65;9.07;;;;;;;;;;5009556;28;20126;-59
2023/10/31 06:27:10;;;;;;;15.85;8.90;;;;;;;;;;5037486;28;20048;-61
2023/10/31 06:29:36;;;;;;;15.27;8.68;;;;;;;;;;5041029;28;20567;-61
2023/10/31 06:32:02;;;;;;;19.95;8.88;;;;;;;;;;5039058;28;20033;-61
2023/10/31 06:34:28;;;;;;;18.83;9.23;;;;;;;;;;5043374;28;20025;-60
2023/10/31 06:36:54;;;;;;;15.40;8.30;;;;;;;;;;5031364;28;20033;-60
2023/10/31 06:39:22;;;;;;;15.13;7.95;;;;;;;;;;5038635;28;20029;-60
2023/10/31 06:41:48;;;;;;;17.70;8.32;;;;;;;;;;5040139;28;20483;-61
2023/10/31 06:44:14;;;;;;;12.73;7.03;;;;;;;;;;5026903;28;20032;-60
2023/10/31 06:46:40;;;;;;;19.75;8.57;;;;;;;;;;5039650;28;20352;-61
2023/10/31 06:49:06;;;;;;;14.88;8.48;;;;;;;;;;5036084;28;20465;-60
2023/10/31 06:51:33;;;;;;;14.18;6.90;;;;;;;;;;5044737;28;20029;-60
2023/10/31 06:53:59;;;;;;;16.15;7.18;;;;;;;;;;5037083;28;20028;-60
2023/10/31 06:56:25;;;;;;;10.38;5.90;;;;;;;;;;5040806;28;20382;-61
2023/10/31 06:58:51;;;;;;;10.82;6.40;;;;;;;;;;5039158;28;20040;-61
2023/10/31 07:01:19;;;;;;;9.38;6.00;;;;;;;;;;5034917;28;20545;-60
2023/10/31 07:03:45;;;;;;;9.20;6.28;;;;;;;;;;5042496;28;20021;-60
2023/10/31 07:06:11;;;;;;;10.40;5.80;;;;;;;;;;5039692;28;20036;-62
2023/10/31 07:08:37;;;;;;;8.60;5.63;;;;;;;;;;5038915;28;20044;-61
2023/10/31 07:11:03;;;;;;;9.15;5.75;;;;;;;;;;5039653;28;20029;-61
2023/10/31 07:13:31;;;;;;;11.88;6.22;;;;;;;;;;5031300;28;20042;-61
2023/10/31 07:15:57;;;;;;;9.82;6.00;;;;;;;;;;5034040;28;20721;-60
2023/10/31 07:18:23;;;;;;;9.43;5.78;;;;;;;;;;5034173;28;20021;-60
2023/10/31 07:20:49;;;;;;;6.75;4.75;;;;;;;;;;5040383;28;20032;-61
2023/10/31 07:23:15;;;;;;;8.25;5.00;;;;;;;;;;5035809;28;20037;-61
2023/10/31 07:25:42;;;;;;;8.98;5.30;;;;;;;;;;5049999;28;20039;-66
2023/10/31 07:28:08;;;;;;;10.40;5.20;;;;;;;;;;5050371;28;20092;-65
2023/10/31 07:30:34;;;;;;;9.32;5.40;;;;;;;;;;5047871;28;20029;-65
2023/10/31 07:33:00;;;;;;;7.68;5.15;;;;;;;;;;5034052;28;20110;-64
2023/10/31 07:35:27;;;;;;;9.02;5.15;;;;;;;;;;5029233;28;20037;-65
2023/10/31 07:37:53;;;;;;;11.55;5.32;;;;;;;;;;5054181;28;20033;-65
2023/10/31 07:40:19;;;;;;;7.45;4.90;;;;;;;;;;5049436;28;20063;-65
2023/10/31 07:42:45;;;;;;;9.00;5.63;;;;;;;;;;5043928;28;20021;-65
2023/10/31 07:45:11;;;;;;;10.07;6.03;;;;;;;;;;5046739;28;20035;-65
2023/10/31 07:47:37;;;;;;;8.85;5.10;;;;;;;;;;5051393;28;20039;-64
2023/10/31 07:50:04;;;;;;;8.88;5.22;;;;;;;;;;5040397;28;20078;-65
2023/10/31 07:52:30;;;;;;;8.50;5.50;;;;;;;;;;5045495;28;20391;-66
2023/10/31 07:54:56;;;;;;;10.48;5.50;;;;;;;;;;5050613;28;20036;-64
2023/10/31 07:57:22;;;;;;;7.68;4.95;;;;;;;;;;5030814;28;20079;-65
2023/10/31 07:59:48;;;;;;;8.55;5.43;;;;;;;;;;5042131;28;20112;-65
2023/10/31 08:02:14;;;;;;;8.02;5.28;;;;;;;;;;5050919;28;20049;-65
2023/10/31 08:04:40;;;;;;;9.05;5.45;;;;;;;;;;5026434;28;20032;-65
2023/10/31 08:07:06;;;;;;;9.52;5.05;;;;;;;;;;5031064;28;20030;-65
2023/10/31 08:09:32;;;;;;;8.82;5.55;;;;;;;;;;5049210;28;20985;-65
2023/10/31 08:11:58;;;;;;;9.15;5.40;;;;;;;;;;5052536;28;20029;-68
2023/10/31 08:14:25;;;;;;;8.80;5.60;;;;;;;;;;5048263;28;20422;-66
2023/10/31 08:16:51;;;;;;;8.27;4.78;;;;;;;;;;5054140;28;20482;-65
2023/10/31 08:19:17;;;;;;;9.88;5.18;;;;;;;;;;5051647;28;20379;-65
2023/10/31 08:21:43;;;;;;;9.48;4.97;;;;;;;;;;5055846;28;20079;-65
2023/10/31 08:24:10;;;;;;;7.43;5.13;;;;;;;;;;5054864;28;20025;-68
2023/10/31 08:26:36;;;;;;;10.05;6.10;;;;;;;;;;5054165;28;20477;-65
2023/10/31 08:29:03;;;;;;;8.65;5.75;;;;;;;;;;5053101;28;20021;-65
2023/10/31 08:31:29;;;;;;;6.85;4.38;;;;;;;;;;5024974;28;20025;-66
2023/10/31 08:33:55;;;;;;;9.30;5.10;;;;;;;;;;5046448;28;20060;-65
2023/10/31 08:36:21;;;;;;;8.90;4.82;;;;;;;;;;5050588;28;20021;-65
2023/10/31 08:38:49;;;;;;;7.43;5.15;;;;;;;;;;5025402;28;20026;-69
2023/10/31 08:41:19;;;;;;;6.50;4.10;;;;;;;;;;5052124;28;20029;-65
2023/10/31 08:43:46;;;;;;;7.13;5.18;;;;;;;;;;5050661;28;20671;-65
2023/10/31 08:46:12;;;;;;;6.65;4.85;;;;;;;;;;5053239;28;20500;-65
2023/10/31 08:48:38;;;;;;;6.60;4.68;;;;;;;;;;5051873;28;20033;-65
2023/10/31 08:51:04;;;;;;;7.00;4.85;;;;;;;;;;5061072;28;20033;-65
2023/10/31 08:53:30;;;;;;;6.30;4.20;;;;;;;;;;5047989;28;20815;-68
2023/10/31 08:55:56;;;;;;;7.93;5.00;;;;;;;;;;5037392;28;20113;-64
2023/10/31 08:58:23;;;;;;;7.55;5.00;;;;;;;;;;5031866;28;20028;-66
2023/10/31 09:00:49;;;;;;;6.95;4.43;;;;;;;;;;5029585;28;20125;-65
2023/10/31 09:03:15;;;;;;;5.20;3.90;;;;;;;;;;5048694;28;20525;-65
2023/10/31 09:05:42;;;;;;;4.68;3.78;;;;;;;;;;5058125;28;20353;-65
2023/10/31 09:08:09;;;;;;;5.88;4.00;;;;;;;;;;5051837;28;20168;-65
2023/10/31 09:10:39;;;;;;;8.82;3.65;;;;;;;;;;5045590;28;20033;-67
2023/10/31 09:13:05;;;;;;;4.80;3.40;;;;;;;;;;5035825;28;20112;-66
2023/10/31 09:15:31;;;;;;;6.55;4.10;;;;;;;;;;5056112;28;20072;-66
2023/10/31 09:17:58;;;;;;;4.85;3.50;;;;;;;;;;5053939;28;20203;-66
2023/10/31 09:20:24;;;;;;;5.93;3.70;;;;;;;;;;5058643;28;20059;-65
2023/10/31 09:22:50;;;;;;;5.72;3.50;;;;;;;;;;5057082;28;20441;-65
2023/10/31 09:25:16;;;;;;;6.25;3.67;;;;;;;;;;5054896;28;20037;-66
2023/10/31 09:27:42;;;;;;;6.40;4.22;;;;;;;;;;5045349;28;20029;-65
2023/10/31 09:30:09;;;;;;;4.90;3.63;;;;;;;;;;5030263;28;20033;-65
2023/10/31 09:32:35;;;;;;;6.28;3.45;;;;;;;;;;5049257;28;20086;-65
2023/10/31 09:35:01;;;;;;;4.65;3.45;;;;;;;;;;5048043;28;20029;-67
2023/10/31 09:37:27;;;;;;;4.80;3.60;;;;;;;;;;5048156;28;20021;-65
2023/10/31 09:39:53;;;;;;;4.97;3.03;;;;;;;;;;5051108;28;20428;-65
2023/10/31 09:42:20;;;;;;;4.57;2.63;;;;;;;;;;5040694;28;20489;-65
2023/10/31 09:44:46;;;;;;;5.18;3.03;;;;;;;;;;5049277;28;20074;-65
2023/10/31 09:47:12;;;;;;;5.70;3.20;;;;;;;;;;5045576;28;20035;-64
2023/10/31 09:49:39;;;;;;;3.17;2.70;;;;;;;;;;5035781;28;20037;-67
2023/10/31 09:52:07;;;;;;;3.40;2.53;;;;;;;;;;5048281;28;20382;-65
2023/10/31 09:54:34;;;;;;;3.83;2.83;;;;;;;;;;5046774;28;20035;-65
2023/10/31 09:57:00;;;;;;;3.40;2.60;;;;;;;;;;5029834;28;20029;-65
2023/10/31 09:59:27;;;;;;;3.65;2.10;;;;;;;;;;5050168;28;20080;-65
2023/10/31 10:01:53;;;;;;;3.55;2.42;;;;;;;;;;5046983;28;20041;-66
2023/10/31 10:04:19;;;;;;;2.90;2.40;;;;;;;;;;5042214;28;20100;-65
2023/10/31 10:07:01;;;;;;;5.55;2.75;;;;;;;;;;5044275;28;20512;-65
2023/10/31 10:09:28;;;;;;;3.88;2.50;;;;;;;;;;5047313;28;20028;-65
2023/10/31 10:11:54;;;;;;;2.58;2.35;;;;;;;;;;5048260;28;20412;-66
2023/10/31 10:14:22;;;;;;;3.67;2.10;;;;;;;;;;5046663;28;20036;-66
2023/10/31 10:16:49;;;;;;;2.40;2.20;;;;;;;;;;5031253;28;20048;-65
2023/10/31 10:19:22;;;;;;;2.50;2.30;;;;;;;;;;5046275;28;20405;-66
2023/10/31 10:21:49;;;;;;;3.20;2.38;;;;;;;;;;5032798;28;20033;-67
2023/10/31 10:24:16;;;;;;;2.72;2.15;;;;;;;;;;5048764;28;20482;-65
2023/10/31 10:26:42;;;;;;;3.90;2.30;;;;;;;;;;5027530;28;20029;-64
2023/10/31 10:29:08;;;;;;;2.42;2.10;;;;;;;;;;5051527;28;20277;-65
2023/10/31 10:31:35;;;;;;;2.65;2.28;;;;;;;;;;5051790;28;20477;-65
2023/10/31 10:34:01;;;;;;;2.10;1.90;;;;;;;;;;5034220;28;20717;-65
2023/10/31 10:36:28;;;;;;;2.72;2.08;;;;;;;;;;5044496;28;20792;-65
2023/10/31 10:38:57;;;;;;;2.47;2.03;;;;;;;;;;5043808;28;20613;-66
2023/10/31 10:41:26;;;;;;;2.60;2.08;;;;;;;;;;5051407;28;20029;-65
2023/10/31 10:43:56;;;;;;;2.42;2.17;;;;;;;;;;5047862;28;20476;-65
2023/10/31 10:46:24;;;;;;;4.07;2.15;;;;;;;;;;5039206;28;20044;-65
2023/10/31 10:48:52;;;;;;;2.30;2.10;;;;;;;;;;5043520;28;20029;-65
2023/10/31 10:51:42;;;;;;;3.92;2.38;;;;;;;;;;5031925;28;20106;-65
2023/10/31 10:54:30;;;;;;;2.63;2.17;;;;;;;;;;5024373;28;20422;-65
2023/10/31 10:57:03;;;;;;;4.95;2.42;;;;;;;;;;5050464;28;20402;-65
2023/10/31 10:59:41;;;;;;;3.00;1.73;;;;;;;;;;5044254;28;20042;-65
2023/10/31 11:02:10;;;;;;;1.98;1.73;;;;;;;;;;5044433;28;20086;-65
2023/10/31 11:04:36;;;;;;;2.38;2.03;;;;;;;;;;5044571;28;20037;-65
2023/10/31 11:07:03;;;;;;;2.17;1.70;;;;;;;;;;5045631;28;20080;-66
2023/10/31 11:09:31;;;;;;;1.70;1.60;;;;;;;;;;5025355;28;20175;-65
2023/10/31 11:11:57;;;;;;;2.67;1.90;;;;;;;;;;5042924;28;20437;-66
2023/10/31 11:14:24;;;;;;;2.63;2.20;;;;;;;;;;5039200;28;20372;-66
2023/10/31 11:16:54;;;;;;;2.45;2.25;;;;;;;;;;5051122;28;20029;-65
2023/10/31 11:19:21;;;;;;;2.80;1.85;;;;;;;;;;5044904;28;20198;-66
2023/10/31 11:21:54;;;;;;;2.10;1.90;;;;;;;;;;5025826;28;20026;-65
2023/10/31 11:24:24;;;;;;;2.10;1.90;;;;;;;;;;5035714;28;20033;-66
2023/10/31 11:26:54;;;;;;;2.15;1.70;;;;;;;;;;5047791;28;20029;-66
2023/10/31 11:29:20;;;;;;;2.88;2.33;;;;;;;;;;5048484;28;20029;-65
2023/10/31 11:31:47;;;;;;;3.05;2.10;;;;;;;;;;5032138;28;20022;-65
2023/10/31 11:34:15;;;;;;;3.67;2.08;;;;;;;;;;5053494;28;20415;-66
2023/10/31 11:36:41;;;;;;;2.53;2.33;;;;;;;;;;5033565;28;20032;-65
2023/10/31 11:39:34;;;;;;;2.58;2.10;;;;;;;;;;5046023;28;20056;-65
2023/10/31 11:42:00;;;;;;;2.22;2.03;;;;;;;;;;5048071;28;20028;-65
2023/10/31 11:44:27;;;;;;;6.47;2.97;;;;;;;;;;5045681;28;20026;-65
2023/10/31 11:46:53;;;;;;;3.08;2.30;;;;;;;;;;5043903;28;20025;-65
2023/10/31 11:49:38;;;;;;;5.82;3.97;;;;;;;;;;5051549;28;20474;-65
2023/10/31 11:52:14;;;;;;;6.93;4.00;;;;;;;;;;5048682;28;20454;-67
2023/10/31 11:54:41;;;;;;;3.40;2.67;;;;;;;;;;5057654;28;20365;-65
2023/10/31 11:57:07;;;;;;;4.00;3.30;;;;;;;;;;5015018;28;20021;-66
2023/10/31 11:59:37;;;;;;;3.72;2.90;;;;;;;;;;5032747;28;20018;-66
2023/10/31 12:02:13;;;;;;;2.70;2.50;;;;;;;;;;5044455;28;20115;-67
2023/10/31 12:04:40;;;;;;;4.53;3.72;;;;;;;;;;5032969;28;20032;-67
2023/10/31 12:07:06;;;;;;;3.08;2.35;;;;;;;;;;5051527;28;20108;-67
2023/10/31 12:09:32;;;;;;;3.28;2.60;;;;;;;;;;5028812;28;20033;-67
2023/10/31 12:11:58;;;;;;;2.60;2.40;;;;;;;;;;5051653;28;20029;-67
2023/10/31 12:14:24;;;;;;;3.17;2.38;;;;;;;;;;5051407;28;20037;-67
2023/10/31 12:16:50;;;;;;;3.65;2.33;;;;;;;;;;5048648;28;20034;-68
2023/10/31 12:19:16;;;;;;;2.15;1.95;;;;;;;;;;5047341;28;20036;-66
2023/10/31 12:21:43;;;;;;;2.83;2.25;;;;;;;;;;5047483;28;20597;-66
2023/10/31 12:24:10;;;;;;;2.63;2.20;;;;;;;;;;5053082;28;20024;-66
2023/10/31 12:26:37;;;;;;;3.13;2.30;;;;;;;;;;5033000;28;20041;-66
2023/10/31 12:29:09;;;;;;;2.60;2.30;;;;;;;;;;5046733;28;20509;-67
2023/10/31 12:31:35;;;;;;;2.33;2.13;;;;;;;;;;5020344;28;20045;-66
2023/10/31 12:34:07;;;;;;;3.22;2.30;;;;;;;;;;5043952;28;20188;-65
2023/10/31 12:36:35;;;;;;;8.30;5.72;;;;;;;;;;5042805;28;20529;-66
2023/10/31 12:39:01;;;;;;;4.60;2.80;;;;;;;;;;5019871;28;20021;-65
2023/10/31 12:41:27;;;;;;;4.63;2.80;;;;;;;;;;5033101;28;20034;-66
2023/10/31 12:43:54;;;;;;;4.50;3.58;;;;;;;;;;5050604;28;20021;-66
2023/10/31 12:46:27;;;;;;;4.00;3.00;;;;;;;;;;5049801;28;20029;-67
2023/10/31 12:48:54;;;;;;;2.63;2.08;;;;;;;;;;5015795;28;20050;-66
2023/10/31 12:51:20;;;;;;;2.65;2.05;;;;;;;;;;5045473;28;20074;-65
2023/10/31 12:53:55;;;;;;;1.98;1.77;;;;;;;;;;5047982;28;20036;-66
2023/10/31 12:56:39;;;;;;;1.98;1.77;;;;;;;;;;5046936;28;20108;-66
2023/10/31 12:59:09;;;;;;;1.95;1.85;;;;;;;;;;5049449;28;20473;-66
2023/10/31 13:01:43;;;;;;;2.45;2.00;;;;;;;;;;5032640;28;20398;-65
2023/10/31 13:04:09;;;;;;;2.42;1.70;;;;;;;;;;5051512;28;20072;-65
2023/10/31 13:06:36;;;;;;;2.47;1.70;;;;;;;;;;5048203;28;20025;-66
2023/10/31 13:09:05;;;;;;;2.08;1.88;;;;;;;;;;5048246;28;20032;-66
2023/10/31 13:11:31;;;;;;;2.70;1.85;;;;;;;;;;5029536;28;20582;-65
2023/10/31 13:13:58;;;;;;;2.00;1.70;;;;;;;;;;5028563;28;20025;-70
2023/10/31 13:16:26;;;;;;;1.73;1.63;;;;;;;;;;5038205;28;20032;-66
2023/10/31 13:18:54;;;;;;;2.25;1.80;;;;;;;;;;5029995;28;20045;-66
2023/10/31 13:21:20;;;;;;;1.95;1.85;;;;;;;;;;5015517;28;20033;-65
2023/10/31 13:23:47;;;;;;;1.92;1.80;;;;;;;;;;5027371;28;20052;-65
2023/10/31 13:26:14;;;;;;;2.80;1.92;;;;;;;;;;5015587;28;20463;-64
2023/10/31 13:28:40;;;;;;;2.20;2.00;;;;;;;;;;5036877;28;20470;-64
2023/10/31 13:31:08;;;;;;;1.90;1.80;;;;;;;;;;5037534;28;20040;-64
2023/10/31 13:33:35;;;;;;;1.88;1.70;;;;;;;;;;5020931;28;20086;-64
2023/10/31 13:36:01;;;;;;;1.70;1.60;;;;;;;;;;5033461;28;20041;-64
2023/10/31 13:38:27;;;;;;;1.92;1.70;;;;;;;;;;5034344;28;20135;-65
2023/10/31 13:40:53;;;;;;;1.90;1.80;;;;;;;;;;5036566;28;20029;-65
2023/10/31 13:43:19;;;;;;;2.00;1.75;;;;;;;;;;5036367;28;20020;-64
2023/10/31 13:45:45;;;;;;;1.85;1.55;;;;;;;;;;5014065;28;20150;-65
2023/10/31 13:48:14;;;;;;;3.53;1.77;;;;;;;;;;5036885;28;20510;-65
2023/10/31 13:50:41;;;;;;;3.58;1.75;;;;;;;;;;5032196;28;20079;-67
2023/10/31 13:53:07;;;;;;;1.90;1.80;;;;;;;;;;5027129;28;20033;-66
2023/10/31 13:55:33;;;;;;;2.28;1.90;;;;;;;;;;5037208;28;20033;-66
2023/10/31 13:58:00;;;;;;;2.53;1.60;;;;;;;;;;5037768;28;20057;-67
2023/10/31 14:00:26;;;;;;;1.70;1.60;;;;;;;;;;5044391;28;20032;-67
2023/10/31 14:02:52;;;;;;;3.83;2.95;;;;;;;;;;5042527;28;20053;-67
2023/10/31 14:05:18;;;;;;;7.85;5.78;;;;;;;;;;5037652;28;20063;-69
2023/10/31 14:07:45;;;;;;;24.77;15.80;;;;;;;;;;5034273;28;20036;-67
2023/10/31 14:10:11;;;;;;;17.60;10.55;;;;;;;;;;5017346;28;20041;-67
2023/10/31 14:12:37;;;;;;;5.90;3.17;;;;;;;;;;5037932;28;20103;-68
2023/10/31 14:15:03;;;;;;;3.55;2.83;;;;;;;;;;5034808;28;20031;-74
2023/10/31 14:17:29;;;;;;;3.63;2.53;;;;;;;;;;5037158;28;20032;-67
2023/10/31 14:19:55;;;;;;;3.85;3.15;;;;;;;;;;5023316;28;20029;-68
2023/10/31 14:22:21;;;;;;;3.53;3.00;;;;;;;;;;5022223;28;20060;-69
2023/10/31 14:24:47;;;;;;;4.78;2.90;;;;;;;;;;5022458;28;20021;-67
2023/10/31 14:27:15;;;;;;;5.70;3.03;;;;;;;;;;5039073;28;20394;-67
2023/10/31 14:29:41;;;;;;;3.17;2.40;;;;;;;;;;5042769;28;20029;-66
2023/10/31 14:32:12;;;;;;;3.88;2.92;;;;;;;;;;5047525;28;20036;-69